sensor_id;sensor_type;location;lat;lon;timestamp;P1;durP1;ratioP1;P2;durP2;ratioP2
36303;SDS011;22335;49.800;8.596;2023-12-20T00:03:47;19.02;;;17.73;;
36303;SDS011;22335;49.800;8.596;2023-12-20T00:10:31;19.08;;;17.70;;
36303;SDS011;22335;49.800;8.596;2023-12-20T00:17:16;19.13;;;17.70;;
36303;SDS011;22335;49.800;8.596;2023-12-20T00:23:59;18.75;;;17.30;;
36303;SDS011;22335;49.800;8.596;2023-12-20T00:30:43;17.88;;;16.77;;
36303;SDS011;22335;49.800;8.596;2023-12-20T00:37:27;18.75;;;17.30;;
36303;SDS011;22335;49.800;8.596;2023-12-20T00:44:11;18.65;;;17.60;;
36303;SDS011;22335;49.800;8.596;2023-12-20T00:50:54;18.63;;;17.60;;
36303;SDS011;22335;49.800;8.596;2023-12-20T00:57:40;17.40;;;16.50;;
36303;SDS011;22335;49.800;8.596;2023-12-20T01:04:23;18.55;;;17.30;;
36303;SDS011;22335;49.800;8.596;2023-12-20T01:11:07;18.92;;;17.60;;
36303;SDS011;22335;49.800;8.596;2023-12-20T01:17:52;18.55;;;17.50;;
36303;SDS011;22335;49.800;8.596;2023-12-20T01:24:38;17.90;;;16.80;;
36303;SDS011;22335;49.800;8.596;2023-12-20T01:31:21;18.65;;;17.40;;
36303;SDS011;22335;49.800;8.596;2023-12-20T01:38:06;19.10;;;18.00;;
36303;SDS011;22335;49.800;8.596;2023-12-20T01:44:49;19.70;;;18.60;;
36303;SDS011;22335;49.800;8.596;2023-12-20T01:51:33;18.35;;;17.15;;
36303;SDS011;22335;49.800;8.596;2023-12-20T01:58:18;18.15;;;17.13;;
36303;SDS011;22335;49.800;8.596;2023-12-20T02:05:03;18.20;;;17.10;;
36303;SDS011;22335;49.800;8.596;2023-12-20T02:11:47;18.65;;;17.65;;
36303;SDS011;22335;49.800;8.596;2023-12-20T02:18:31;17.75;;;16.83;;
36303;SDS011;22335;49.800;8.596;2023-12-20T02:25:16;18.80;;;17.75;;
36303;SDS011;22335;49.800;8.596;2023-12-20T02:32:00;17.30;;;16.40;;
36303;SDS011;22335;49.800;8.596;2023-12-20T02:38:44;18.15;;;17.15;;
36303;SDS011;22335;49.800;8.596;2023-12-20T02:45:29;17.38;;;16.40;;
36303;SDS011;22335;49.800;8.596;2023-12-20T02:52:12;18.20;;;17.30;;
36303;SDS011;22335;49.800;8.596;2023-12-20T02:58:56;18.80;;;17.80;;
36303;SDS011;22335;49.800;8.596;2023-12-20T03:05:41;18.40;;;17.30;;
36303;SDS011;22335;49.800;8.596;2023-12-20T03:12:24;19.10;;;17.90;;
36303;SDS011;22335;49.800;8.596;2023-12-20T03:19:08;20.25;;;18.65;;
36303;SDS011;22335;49.800;8.596;2023-12-20T03:25:53;18.95;;;17.80;;
36303;SDS011;22335;49.800;8.596;2023-12-20T03:32:36;19.38;;;18.10;;
36303;SDS011;22335;49.800;8.596;2023-12-20T03:39:20;20.75;;;19.35;;
36303;SDS011;22335;49.800;8.596;2023-12-20T04:01:10;19.80;;;18.60;;
36303;SDS011;22335;49.800;8.596;2023-12-20T04:07:54;19.20;;;17.95;;
36303;SDS011;22335;49.800;8.596;2023-12-20T04:14:38;19.65;;;18.38;;
36303;SDS011;22335;49.800;8.596;2023-12-20T04:21:22;19.30;;;18.10;;
36303;SDS011;22335;49.800;8.596;2023-12-20T04:28:07;20.08;;;18.73;;
36303;SDS011;22335;49.800;8.596;2023-12-20T04:34:50;19.20;;;18.10;;
36303;SDS011;22335;49.800;8.596;2023-12-20T04:41:35;20.42;;;19.20;;
36303;SDS011;22335;49.800;8.596;2023-12-20T04:48:19;19.10;;;17.90;;
36303;SDS011;22335;49.800;8.596;2023-12-20T04:55:02;19.58;;;18.20;;
36303;SDS011;22335;49.800;8.596;2023-12-20T05:01:48;19.58;;;18.27;;
36303;SDS011;22335;49.800;8.596;2023-12-20T05:08:31;18.73;;;17.63;;
36303;SDS011;22335;49.800;8.596;2023-12-20T05:15:15;18.40;;;17.25;;
36303;SDS011;22335;49.800;8.596;2023-12-20T05:22:00;19.70;;;18.40;;
36303;SDS011;22335;49.800;8.596;2023-12-20T05:28:44;19.30;;;18.10;;
36303;SDS011;22335;49.800;8.596;2023-12-20T05:35:27;20.10;;;18.80;;
36303;SDS011;22335;49.800;8.596;2023-12-20T05:42:12;18.75;;;17.75;;
36303;SDS011;22335;49.800;8.596;2023-12-20T05:48:55;17.30;;;16.40;;
36303;SDS011;22335;49.800;8.596;2023-12-20T05:55:39;16.98;;;16.08;;
36303;SDS011;22335;49.800;8.596;2023-12-20T06:02:24;17.50;;;16.40;;
36303;SDS011;22335;49.800;8.596;2023-12-20T06:09:08;17.35;;;16.30;;
36303;SDS011;22335;49.800;8.596;2023-12-20T06:15:53;17.73;;;16.63;;
36303;SDS011;22335;49.800;8.596;2023-12-20T06:22:39;19.02;;;17.90;;
36303;SDS011;22335;49.800;8.596;2023-12-20T06:29:23;18.70;;;17.30;;
36303;SDS011;22335;49.800;8.596;2023-12-20T06:36:07;18.83;;;17.70;;
36303;SDS011;22335;49.800;8.596;2023-12-20T06:42:54;19.15;;;17.70;;
36303;SDS011;22335;49.800;8.596;2023-12-20T06:49:38;19.00;;;17.70;;
36303;SDS011;22335;49.800;8.596;2023-12-20T06:56:22;20.02;;;18.63;;
36303;SDS011;22335;49.800;8.596;2023-12-20T07:03:07;19.40;;;17.75;;
36303;SDS011;22335;49.800;8.596;2023-12-20T07:09:52;18.85;;;17.20;;
36303;SDS011;22335;49.800;8.596;2023-12-20T07:16:35;20.08;;;18.60;;
36303;SDS011;22335;49.800;8.596;2023-12-20T07:23:20;20.38;;;18.92;;
36303;SDS011;22335;49.800;8.596;2023-12-20T07:30:04;19.50;;;17.90;;
36303;SDS011;22335;49.800;8.596;2023-12-20T07:36:48;19.52;;;18.42;;
36303;SDS011;22335;49.800;8.596;2023-12-20T07:43:33;18.77;;;17.50;;
36303;SDS011;22335;49.800;8.596;2023-12-20T07:50:17;20.52;;;19.00;;
36303;SDS011;22335;49.800;8.596;2023-12-20T07:57:00;19.70;;;17.90;;
36303;SDS011;22335;49.800;8.596;2023-12-20T08:03:45;19.13;;;17.80;;
36303;SDS011;22335;49.800;8.596;2023-12-20T08:10:28;20.20;;;18.70;;
36303;SDS011;22335;49.800;8.596;2023-12-20T08:17:12;19.77;;;18.15;;
36303;SDS011;22335;49.800;8.596;2023-12-20T08:23:58;25.38;;;18.50;;
36303;SDS011;22335;49.800;8.596;2023-12-20T08:30:43;20.00;;;18.50;;
36303;SDS011;22335;49.800;8.596;2023-12-20T08:37:26;19.75;;;18.10;;
36303;SDS011;22335;49.800;8.596;2023-12-20T08:44:12;20.25;;;18.60;;
36303;SDS011;22335;49.800;8.596;2023-12-20T08:50:56;19.92;;;18.33;;
36303;SDS011;22335;49.800;8.596;2023-12-20T08:57:39;19.90;;;18.10;;
36303;SDS011;22335;49.800;8.596;2023-12-20T09:04:24;19.40;;;17.75;;
36303;SDS011;22335;49.800;8.596;2023-12-20T09:11:08;19.88;;;18.48;;
36303;SDS011;22335;49.800;8.596;2023-12-20T09:17:51;20.85;;;19.00;;
36303;SDS011;22335;49.800;8.596;2023-12-20T09:24:37;19.95;;;18.27;;
36303;SDS011;22335;49.800;8.596;2023-12-20T09:31:20;20.83;;;19.13;;
36303;SDS011;22335;49.800;8.596;2023-12-20T09:38:04;20.73;;;19.08;;
36303;SDS011;22335;49.800;8.596;2023-12-20T09:44:49;20.33;;;18.80;;
36303;SDS011;22335;49.800;8.596;2023-12-20T09:51:33;19.58;;;17.70;;
36303;SDS011;22335;49.800;8.596;2023-12-20T09:58:17;20.08;;;18.40;;
36303;SDS011;22335;49.800;8.596;2023-12-20T10:05:02;19.55;;;17.95;;
36303;SDS011;22335;49.800;8.596;2023-12-20T10:11:53;18.13;;;16.50;;
36303;SDS011;22335;49.800;8.596;2023-12-20T10:18:38;18.90;;;17.25;;
36303;SDS011;22335;49.800;8.596;2023-12-20T10:25:23;19.27;;;17.55;;
36303;SDS011;22335;49.800;8.596;2023-12-20T10:32:24;18.88;;;17.17;;
36303;SDS011;22335;49.800;8.596;2023-12-20T10:39:08;18.50;;;16.77;;
36303;SDS011;22335;49.800;8.596;2023-12-20T10:45:54;18.83;;;17.08;;
36303;SDS011;22335;49.800;8.596;2023-12-20T10:52:38;18.38;;;16.58;;
36303;SDS011;22335;49.800;8.596;2023-12-20T10:59:23;17.67;;;16.10;;
36303;SDS011;22335;49.800;8.596;2023-12-20T11:06:10;18.48;;;16.80;;
36303;SDS011;22335;49.800;8.596;2023-12-20T11:13:09;18.52;;;16.90;;
36303;SDS011;22335;49.800;8.596;2023-12-20T11:20:07;18.85;;;16.95;;
36303;SDS011;22335;49.800;8.596;2023-12-20T11:26:56;18.70;;;17.00;;
36303;SDS011;22335;49.800;8.596;2023-12-20T11:33:39;18.70;;;17.10;;
36303;SDS011;22335;49.800;8.596;2023-12-20T11:40:25;17.73;;;16.27;;
36303;SDS011;22335;49.800;8.596;2023-12-20T11:47:10;19.50;;;17.75;;
36303;SDS011;22335;49.800;8.596;2023-12-20T11:53:56;18.50;;;16.70;;
36303;SDS011;22335;49.800;8.596;2023-12-20T12:00:39;19.15;;;17.25;;
36303;SDS011;22335;49.800;8.596;2023-12-20T12:07:25;17.90;;;16.23;;
36303;SDS011;22335;49.800;8.596;2023-12-20T12:14:09;18.75;;;16.92;;
36303;SDS011;22335;49.800;8.596;2023-12-20T12:20:59;17.58;;;15.93;;
36303;SDS011;22335;49.800;8.596;2023-12-20T12:27:47;18.67;;;16.90;;
36303;SDS011;22335;49.800;8.596;2023-12-20T12:34:30;17.73;;;16.13;;
36303;SDS011;22335;49.800;8.596;2023-12-20T12:41:14;18.25;;;16.50;;
36303;SDS011;22335;49.800;8.596;2023-12-20T12:47:59;18.58;;;17.00;;
36303;SDS011;22335;49.800;8.596;2023-12-20T12:54:43;18.77;;;17.00;;
36303;SDS011;22335;49.800;8.596;2023-12-20T13:01:28;18.15;;;16.45;;
36303;SDS011;22335;49.800;8.596;2023-12-20T13:08:13;19.38;;;17.35;;
36303;SDS011;22335;49.800;8.596;2023-12-20T13:14:56;18.23;;;16.30;;
36303;SDS011;22335;49.800;8.596;2023-12-20T13:21:40;18.25;;;16.30;;
36303;SDS011;22335;49.800;8.596;2023-12-20T13:28:24;17.98;;;16.23;;
36303;SDS011;22335;49.800;8.596;2023-12-20T13:35:08;19.33;;;16.58;;
36303;SDS011;22335;49.800;8.596;2023-12-20T13:41:52;17.77;;;16.08;;
36303;SDS011;22335;49.800;8.596;2023-12-20T13:48:37;17.38;;;15.88;;
36303;SDS011;22335;49.800;8.596;2023-12-20T13:55:21;19.58;;;16.38;;
36303;SDS011;22335;49.800;8.596;2023-12-20T14:02:06;16.77;;;15.20;;
36303;SDS011;22335;49.800;8.596;2023-12-20T14:08:51;17.77;;;16.00;;
36303;SDS011;22335;49.800;8.596;2023-12-20T14:15:34;16.83;;;15.32;;
36303;SDS011;22335;49.800;8.596;2023-12-20T14:22:18;16.98;;;15.60;;
36303;SDS011;22335;49.800;8.596;2023-12-20T14:29:03;17.40;;;15.90;;
36303;SDS011;22335;49.800;8.596;2023-12-20T14:35:48;16.50;;;15.00;;
36303;SDS011;22335;49.800;8.596;2023-12-20T14:42:33;16.50;;;15.07;;
36303;SDS011;22335;49.800;8.596;2023-12-20T14:49:18;16.50;;;15.10;;
36303;SDS011;22335;49.800;8.596;2023-12-20T14:56:02;16.42;;;14.90;;
36303;SDS011;22335;49.800;8.596;2023-12-20T15:02:46;16.95;;;15.55;;
36303;SDS011;22335;49.800;8.596;2023-12-20T15:09:32;19.38;;;14.88;;
36303;SDS011;22335;49.800;8.596;2023-12-20T15:16:15;16.25;;;14.73;;
36303;SDS011;22335;49.800;8.596;2023-12-20T15:22:59;16.48;;;14.77;;
36303;SDS011;22335;49.800;8.596;2023-12-20T15:29:47;16.58;;;15.00;;
36303;SDS011;22335;49.800;8.596;2023-12-20T15:36:33;16.48;;;14.85;;
36303;SDS011;22335;49.800;8.596;2023-12-20T15:43:18;16.23;;;14.88;;
36303;SDS011;22335;49.800;8.596;2023-12-20T15:50:03;16.90;;;15.30;;
36303;SDS011;22335;49.800;8.596;2023-12-20T15:56:48;17.73;;;16.00;;
36303;SDS011;22335;49.800;8.596;2023-12-20T16:03:32;16.23;;;14.60;;
36303;SDS011;22335;49.800;8.596;2023-12-20T16:10:18;17.05;;;15.40;;
36303;SDS011;22335;49.800;8.596;2023-12-20T16:17:02;18.70;;;16.48;;
36303;SDS011;22335;49.800;8.596;2023-12-20T16:23:47;18.38;;;16.63;;
36303;SDS011;22335;49.800;8.596;2023-12-20T16:30:32;17.63;;;15.70;;
36303;SDS011;22335;49.800;8.596;2023-12-20T16:37:15;17.45;;;15.80;;
36303;SDS011;22335;49.800;8.596;2023-12-20T16:43:59;20.55;;;15.30;;
36303;SDS011;22335;49.800;8.596;2023-12-20T16:50:44;17.38;;;15.75;;
36303;SDS011;22335;49.800;8.596;2023-12-20T16:57:27;17.15;;;15.52;;
36303;SDS011;22335;49.800;8.596;2023-12-20T17:04:11;18.35;;;16.40;;
36303;SDS011;22335;49.800;8.596;2023-12-20T17:10:56;17.60;;;15.80;;
36303;SDS011;22335;49.800;8.596;2023-12-20T17:17:40;18.38;;;16.52;;
36303;SDS011;22335;49.800;8.596;2023-12-20T17:24:26;18.52;;;16.65;;
36303;SDS011;22335;49.800;8.596;2023-12-20T17:31:11;18.77;;;16.83;;
36303;SDS011;22335;49.800;8.596;2023-12-20T17:37:55;17.92;;;16.20;;
36303;SDS011;22335;49.800;8.596;2023-12-20T17:44:38;18.00;;;16.30;;
36303;SDS011;22335;49.800;8.596;2023-12-20T17:51:23;17.10;;;15.50;;
36303;SDS011;22335;49.800;8.596;2023-12-20T17:58:07;17.98;;;16.30;;
36303;SDS011;22335;49.800;8.596;2023-12-20T18:04:50;17.45;;;16.00;;
36303;SDS011;22335;49.800;8.596;2023-12-20T18:11:35;17.88;;;16.58;;
36303;SDS011;22335;49.800;8.596;2023-12-20T18:18:19;18.45;;;16.75;;
36303;SDS011;22335;49.800;8.596;2023-12-20T18:25:03;18.33;;;16.70;;
36303;SDS011;22335;49.800;8.596;2023-12-20T18:31:48;18.23;;;16.38;;
36303;SDS011;22335;49.800;8.596;2023-12-20T18:38:32;17.13;;;15.63;;
36303;SDS011;22335;49.800;8.596;2023-12-20T18:45:16;17.15;;;15.55;;
36303;SDS011;22335;49.800;8.596;2023-12-20T18:52:01;17.00;;;15.40;;
36303;SDS011;22335;49.800;8.596;2023-12-20T18:58:47;18.85;;;16.98;;
36303;SDS011;22335;49.800;8.596;2023-12-20T19:05:30;18.73;;;17.13;;
36303;SDS011;22335;49.800;8.596;2023-12-20T19:12:15;18.02;;;16.42;;
36303;SDS011;22335;49.800;8.596;2023-12-20T19:18:59;18.02;;;16.52;;
36303;SDS011;22335;49.800;8.596;2023-12-20T19:25:43;18.20;;;16.30;;
36303;SDS011;22335;49.800;8.596;2023-12-20T19:32:28;18.20;;;16.70;;
36303;SDS011;22335;49.800;8.596;2023-12-20T19:39:12;18.40;;;16.90;;
36303;SDS011;22335;49.800;8.596;2023-12-20T19:45:55;18.67;;;16.90;;
36303;SDS011;22335;49.800;8.596;2023-12-20T19:52:40;18.75;;;17.05;;
36303;SDS011;22335;49.800;8.596;2023-12-20T19:59:24;17.30;;;15.70;;
36303;SDS011;22335;49.800;8.596;2023-12-20T20:06:08;18.00;;;16.40;;
36303;SDS011;22335;49.800;8.596;2023-12-20T20:12:54;16.90;;;15.55;;
36303;SDS011;22335;49.800;8.596;2023-12-20T20:19:37;17.73;;;16.17;;
36303;SDS011;22335;49.800;8.596;2023-12-20T20:26:21;18.58;;;16.92;;
36303;SDS011;22335;49.800;8.596;2023-12-20T20:33:06;18.63;;;16.83;;
36303;SDS011;22335;49.800;8.596;2023-12-20T20:39:49;18.00;;;16.60;;
36303;SDS011;22335;49.800;8.596;2023-12-20T20:46:33;17.20;;;15.80;;
36303;SDS011;22335;49.800;8.596;2023-12-20T20:53:18;16.85;;;15.65;;
36303;SDS011;22335;49.800;8.596;2023-12-20T21:00:04;18.02;;;16.63;;
36303;SDS011;22335;49.800;8.596;2023-12-20T21:06:49;16.83;;;15.73;;
36303;SDS011;22335;49.800;8.596;2023-12-20T21:13:34;17.92;;;16.50;;
36303;SDS011;22335;49.800;8.596;2023-12-20T21:20:20;17.50;;;16.20;;
36303;SDS011;22335;49.800;8.596;2023-12-20T21:27:03;17.23;;;15.82;;
36303;SDS011;22335;49.800;8.596;2023-12-20T21:33:50;16.80;;;15.40;;
36303;SDS011;22335;49.800;8.596;2023-12-20T21:40:33;17.23;;;15.77;;
36303;SDS011;22335;49.800;8.596;2023-12-20T21:47:17;17.65;;;16.38;;
36303;SDS011;22335;49.800;8.596;2023-12-20T21:54:03;16.60;;;15.40;;
36303;SDS011;22335;49.800;8.596;2023-12-20T22:00:46;17.70;;;16.30;;
36303;SDS011;22335;49.800;8.596;2023-12-20T22:07:30;17.70;;;16.40;;
36303;SDS011;22335;49.800;8.596;2023-12-20T22:14:15;17.40;;;16.13;;
36303;SDS011;22335;49.800;8.596;2023-12-20T22:20:58;18.40;;;16.88;;
36303;SDS011;22335;49.800;8.596;2023-12-20T22:27:42;18.30;;;16.92;;
36303;SDS011;22335;49.800;8.596;2023-12-20T22:34:27;19.23;;;17.63;;
36303;SDS011;22335;49.800;8.596;2023-12-20T22:41:10;20.67;;;18.58;;
36303;SDS011;22335;49.800;8.596;2023-12-20T22:47:54;18.08;;;16.70;;
36303;SDS011;22335;49.800;8.596;2023-12-20T22:54:39;20.00;;;18.30;;
36303;SDS011;22335;49.800;8.596;2023-12-20T23:01:22;19.08;;;17.60;;
36303;SDS011;22335;49.800;8.596;2023-12-20T23:08:06;18.90;;;17.50;;
36303;SDS011;22335;49.800;8.596;2023-12-20T23:14:52;20.65;;;18.90;;
36303;SDS011;22335;49.800;8.596;2023-12-20T23:21:36;19.60;;;18.30;;
36303;SDS011;22335;49.800;8.596;2023-12-20T23:28:20;20.02;;;18.63;;
36303;SDS011;22335;49.800;8.596;2023-12-20T23:35:05;18.85;;;17.45;;
36303;SDS011;22335;49.800;8.596;2023-12-20T23:41:52;19.05;;;17.80;;
36303;SDS011;22335;49.800;8.596;2023-12-20T23:48:37;19.63;;;18.30;;
36303;SDS011;22335;49.800;8.596;2023-12-20T23:55:22;19.77;;;18.45;;
